sensor_id;sensor_type;location;lat;lon;timestamp;temperature;humidity
44461;DHT22;30162;53.642;10.640;2023-05-23T00:01:40;21.40;87.70
44461;DHT22;30162;53.642;10.640;2023-05-23T00:04:07;21.30;88.00
44461;DHT22;30162;53.642;10.640;2023-05-23T00:06:34;21.30;88.40
44461;DHT22;30162;53.642;10.640;2023-05-23T00:09:00;21.30;88.60
44461;DHT22;30162;53.642;10.640;2023-05-23T00:11:26;21.40;88.30
44461;DHT22;30162;53.642;10.640;2023-05-23T00:13:53;21.40;87.60
44461;DHT22;30162;53.642;10.640;2023-05-23T00:16:19;21.50;87.70
44461;DHT22;30162;53.642;10.640;2023-05-23T00:18:46;21.50;87.90
44461;DHT22;30162;53.642;10.640;2023-05-23T00:21:11;21.40;88.00
44461;DHT22;30162;53.642;10.640;2023-05-23T00:23:40;21.50;88.00
44461;DHT22;30162;53.642;10.640;2023-05-23T00:26:09;21.50;87.60
44461;DHT22;30162;53.642;10.640;2023-05-23T00:28:35;21.40;88.30
44461;DHT22;30162;53.642;10.640;2023-05-23T00:31:01;21.20;88.10
44461;DHT22;30162;53.642;10.640;2023-05-23T00:33:26;21.20;88.60
44461;DHT22;30162;53.642;10.640;2023-05-23T00:35:54;21.20;88.80
44461;DHT22;30162;53.642;10.640;2023-05-23T00:38:19;21.20;89.20
44461;DHT22;30162;53.642;10.640;2023-05-23T00:40:45;21.20;88.80
44461;DHT22;30162;53.642;10.640;2023-05-23T00:43:10;21.10;88.70
44461;DHT22;30162;53.642;10.640;2023-05-23T00:45:36;21.10;88.90
44461;DHT22;30162;53.642;10.640;2023-05-23T00:48:03;21.00;89.00
44461;DHT22;30162;53.642;10.640;2023-05-23T00:50:28;21.00;89.10
44461;DHT22;30162;53.642;10.640;2023-05-23T00:52:55;21.10;89.20
44461;DHT22;30162;53.642;10.640;2023-05-23T00:55:25;21.10;89.20
44461;DHT22;30162;53.642;10.640;2023-05-23T00:57:52;21.10;88.80
44461;DHT22;30162;53.642;10.640;2023-05-23T01:00:19;21.10;89.00
44461;DHT22;30162;53.642;10.640;2023-05-23T01:02:46;21.20;89.20
44461;DHT22;30162;53.642;10.640;2023-05-23T01:05:13;21.30;88.90
44461;DHT22;30162;53.642;10.640;2023-05-23T01:07:42;21.30;88.20
44461;DHT22;30162;53.642;10.640;2023-05-23T01:10:08;21.20;88.10
44461;DHT22;30162;53.642;10.640;2023-05-23T01:15:36;21.10;88.90
44461;DHT22;30162;53.642;10.640;2023-05-23T01:18:12;21.10;89.30
44461;DHT22;30162;53.642;10.640;2023-05-23T01:20:54;21.00;89.20
44461;DHT22;30162;53.642;10.640;2023-05-23T01:26:06;21.10;89.70
44461;DHT22;30162;53.642;10.640;2023-05-23T01:28:44;21.20;89.10
44461;DHT22;30162;53.642;10.640;2023-05-23T01:31:10;21.10;89.80
44461;DHT22;30162;53.642;10.640;2023-05-23T01:33:37;21.10;89.70
44461;DHT22;30162;53.642;10.640;2023-05-23T01:36:03;21.10;89.60
44461;DHT22;30162;53.642;10.640;2023-05-23T01:38:29;21.00;89.60
44461;DHT22;30162;53.642;10.640;2023-05-23T01:40:54;21.00;89.70
44461;DHT22;30162;53.642;10.640;2023-05-23T01:43:21;21.00;90.10
44461;DHT22;30162;53.642;10.640;2023-05-23T01:45:47;20.90;90.20
44461;DHT22;30162;53.642;10.640;2023-05-23T01:48:14;20.90;90.30
44461;DHT22;30162;53.642;10.640;2023-05-23T01:50:42;21.00;90.30
44461;DHT22;30162;53.642;10.640;2023-05-23T01:53:11;21.10;90.30
44461;DHT22;30162;53.642;10.640;2023-05-23T01:55:39;21.10;90.00
44461;DHT22;30162;53.642;10.640;2023-05-23T01:58:05;21.10;90.10
44461;DHT22;30162;53.642;10.640;2023-05-23T02:00:30;21.20;90.00
44461;DHT22;30162;53.642;10.640;2023-05-23T02:02:56;21.20;89.80
44461;DHT22;30162;53.642;10.640;2023-05-23T02:05:22;21.20;89.70
44461;DHT22;30162;53.642;10.640;2023-05-23T02:07:48;21.10;89.90
44461;DHT22;30162;53.642;10.640;2023-05-23T02:10:13;21.10;90.30
44461;DHT22;30162;53.642;10.640;2023-05-23T02:12:39;21.10;90.10
44461;DHT22;30162;53.642;10.640;2023-05-23T02:15:04;21.10;90.00
44461;DHT22;30162;53.642;10.640;2023-05-23T02:17:30;21.20;90.00
44461;DHT22;30162;53.642;10.640;2023-05-23T02:19:56;21.10;90.00
44461;DHT22;30162;53.642;10.640;2023-05-23T02:22:24;21.20;90.20
44461;DHT22;30162;53.642;10.640;2023-05-23T02:24:50;21.10;90.10
44461;DHT22;30162;53.642;10.640;2023-05-23T02:27:16;21.10;90.00
44461;DHT22;30162;53.642;10.640;2023-05-23T02:29:42;21.20;90.00
44461;DHT22;30162;53.642;10.640;2023-05-23T02:32:07;21.20;90.20
44461;DHT22;30162;53.642;10.640;2023-05-23T02:34:33;21.10;89.90
44461;DHT22;30162;53.642;10.640;2023-05-23T02:36:58;21.10;90.40
44461;DHT22;30162;53.642;10.640;2023-05-23T02:39:24;21.10;90.20
44461;DHT22;30162;53.642;10.640;2023-05-23T02:41:49;21.10;90.10
44461;DHT22;30162;53.642;10.640;2023-05-23T02:44:15;21.10;90.10
44461;DHT22;30162;53.642;10.640;2023-05-23T02:46:44;21.10;90.20
44461;DHT22;30162;53.642;10.640;2023-05-23T02:49:09;21.10;90.30
44461;DHT22;30162;53.642;10.640;2023-05-23T02:51:35;21.10;90.10
44461;DHT22;30162;53.642;10.640;2023-05-23T02:54:01;21.10;90.20
44461;DHT22;30162;53.642;10.640;2023-05-23T02:56:26;21.00;90.40
44461;DHT22;30162;53.642;10.640;2023-05-23T02:58:52;21.10;90.50
44461;DHT22;30162;53.642;10.640;2023-05-23T03:01:17;21.20;90.10
44461;DHT22;30162;53.642;10.640;2023-05-23T03:03:44;21.20;90.10
44461;DHT22;30162;53.642;10.640;2023-05-23T03:06:09;21.20;90.10
44461;DHT22;30162;53.642;10.640;2023-05-23T03:08:41;21.30;90.10
44461;DHT22;30162;53.642;10.640;2023-05-23T03:11:07;21.20;90.00
44461;DHT22;30162;53.642;10.640;2023-05-23T03:13:34;21.20;90.00
44461;DHT22;30162;53.642;10.640;2023-05-23T03:15:59;21.20;90.00
44461;DHT22;30162;53.642;10.640;2023-05-23T03:18:25;21.10;90.10
44461;DHT22;30162;53.642;10.640;2023-05-23T03:20:50;21.10;90.30
44461;DHT22;30162;53.642;10.640;2023-05-23T03:23:16;21.20;90.10
44461;DHT22;30162;53.642;10.640;2023-05-23T03:25:42;21.20;90.00
44461;DHT22;30162;53.642;10.640;2023-05-23T03:28:08;21.10;90.00
44461;DHT22;30162;53.642;10.640;2023-05-23T03:30:33;21.10;90.30
44461;DHT22;30162;53.642;10.640;2023-05-23T03:32:59;21.20;90.20
44461;DHT22;30162;53.642;10.640;2023-05-23T03:35:26;21.10;90.30
44461;DHT22;30162;53.642;10.640;2023-05-23T03:37:51;21.10;90.20
44461;DHT22;30162;53.642;10.640;2023-05-23T03:40:17;21.10;90.30
44461;DHT22;30162;53.642;10.640;2023-05-23T03:42:42;21.10;90.40
44461;DHT22;30162;53.642;10.640;2023-05-23T03:45:08;21.10;90.30
44461;DHT22;30162;53.642;10.640;2023-05-23T03:47:33;21.10;90.60
44461;DHT22;30162;53.642;10.640;2023-05-23T03:49:59;21.00;90.60
44461;DHT22;30162;53.642;10.640;2023-05-23T03:52:24;21.10;90.70
44461;DHT22;30162;53.642;10.640;2023-05-23T03:54:50;21.10;90.70
44461;DHT22;30162;53.642;10.640;2023-05-23T03:57:15;21.20;90.40
44461;DHT22;30162;53.642;10.640;2023-05-23T03:59:41;21.10;90.50
44461;DHT22;30162;53.642;10.640;2023-05-23T04:02:06;21.20;90.60
44461;DHT22;30162;53.642;10.640;2023-05-23T04:04:32;21.20;90.60
44461;DHT22;30162;53.642;10.640;2023-05-23T04:06:58;21.20;90.40
44461;DHT22;30162;53.642;10.640;2023-05-23T04:09:23;21.20;90.50
44461;DHT22;30162;53.642;10.640;2023-05-23T04:11:50;21.20;90.70
44461;DHT22;30162;53.642;10.640;2023-05-23T04:14:15;21.20;90.60
44461;DHT22;30162;53.642;10.640;2023-05-23T04:16:41;21.30;90.50
44461;DHT22;30162;53.642;10.640;2023-05-23T04:19:08;21.20;90.60
44461;DHT22;30162;53.642;10.640;2023-05-23T04:21:34;21.20;90.50
44461;DHT22;30162;53.642;10.640;2023-05-23T04:24:00;21.30;90.50
44461;DHT22;30162;53.642;10.640;2023-05-23T04:26:26;21.20;90.40
44461;DHT22;30162;53.642;10.640;2023-05-23T04:28:51;21.10;90.60
44461;DHT22;30162;53.642;10.640;2023-05-23T04:31:19;21.10;90.80
44461;DHT22;30162;53.642;10.640;2023-05-23T04:33:44;21.20;90.90
44461;DHT22;30162;53.642;10.640;2023-05-23T04:36:10;21.20;90.80
44461;DHT22;30162;53.642;10.640;2023-05-23T04:38:36;21.30;90.80
44461;DHT22;30162;53.642;10.640;2023-05-23T04:41:03;21.30;90.80
44461;DHT22;30162;53.642;10.640;2023-05-23T04:43:30;21.30;90.70
44461;DHT22;30162;53.642;10.640;2023-05-23T04:45:58;21.40;90.50
44461;DHT22;30162;53.642;10.640;2023-05-23T04:48:24;21.40;90.30
44461;DHT22;30162;53.642;10.640;2023-05-23T04:50:51;21.40;90.50
44461;DHT22;30162;53.642;10.640;2023-05-23T04:53:17;21.50;90.50
44461;DHT22;30162;53.642;10.640;2023-05-23T04:55:42;21.50;90.40
44461;DHT22;30162;53.642;10.640;2023-05-23T04:58:08;21.50;90.40
44461;DHT22;30162;53.642;10.640;2023-05-23T05:00:34;21.50;90.40
44461;DHT22;30162;53.642;10.640;2023-05-23T05:03:00;21.50;90.30
44461;DHT22;30162;53.642;10.640;2023-05-23T05:05:26;21.60;90.30
44461;DHT22;30162;53.642;10.640;2023-05-23T05:07:51;21.60;90.30
44461;DHT22;30162;53.642;10.640;2023-05-23T05:10:17;21.40;90.30
44461;DHT22;30162;53.642;10.640;2023-05-23T05:12:43;21.40;90.40
44461;DHT22;30162;53.642;10.640;2023-05-23T05:15:13;21.30;90.60
44461;DHT22;30162;53.642;10.640;2023-05-23T05:17:39;21.20;90.40
44461;DHT22;30162;53.642;10.640;2023-05-23T05:20:05;21.30;90.20
44461;DHT22;30162;53.642;10.640;2023-05-23T05:22:35;21.30;90.00
44461;DHT22;30162;53.642;10.640;2023-05-23T05:25:01;21.30;89.90
44461;DHT22;30162;53.642;10.640;2023-05-23T05:27:28;21.30;89.90
44461;DHT22;30162;53.642;10.640;2023-05-23T05:29:53;21.20;89.40
44461;DHT22;30162;53.642;10.640;2023-05-23T05:32:22;21.00;89.90
44461;DHT22;30162;53.642;10.640;2023-05-23T05:34:48;21.00;90.20
44461;DHT22;30162;53.642;10.640;2023-05-23T05:37:15;20.90;90.00
44461;DHT22;30162;53.642;10.640;2023-05-23T05:39:40;20.60;90.20
44461;DHT22;30162;53.642;10.640;2023-05-23T05:42:06;20.50;90.30
44461;DHT22;30162;53.642;10.640;2023-05-23T05:44:32;20.40;90.40
44461;DHT22;30162;53.642;10.640;2023-05-23T05:46:57;20.40;90.20
44461;DHT22;30162;53.642;10.640;2023-05-23T05:49:23;20.50;90.20
44461;DHT22;30162;53.642;10.640;2023-05-23T05:51:48;20.40;90.00
44461;DHT22;30162;53.642;10.640;2023-05-23T05:54:14;20.40;90.20
44461;DHT22;30162;53.642;10.640;2023-05-23T05:56:40;20.40;90.10
44461;DHT22;30162;53.642;10.640;2023-05-23T05:59:06;20.50;90.00
44461;DHT22;30162;53.642;10.640;2023-05-23T06:01:32;20.50;90.00
44461;DHT22;30162;53.642;10.640;2023-05-23T06:04:00;20.50;89.60
44461;DHT22;30162;53.642;10.640;2023-05-23T06:06:26;20.50;89.60
44461;DHT22;30162;53.642;10.640;2023-05-23T06:08:51;20.50;89.80
44461;DHT22;30162;53.642;10.640;2023-05-23T06:11:17;20.60;90.00
44461;DHT22;30162;53.642;10.640;2023-05-23T06:13:43;20.60;90.00
44461;DHT22;30162;53.642;10.640;2023-05-23T06:16:08;20.50;89.60
44461;DHT22;30162;53.642;10.640;2023-05-23T06:18:34;20.60;89.70
44461;DHT22;30162;53.642;10.640;2023-05-23T06:20:59;20.50;89.40
44461;DHT22;30162;53.642;10.640;2023-05-23T06:23:25;20.50;89.50
44461;DHT22;30162;53.642;10.640;2023-05-23T06:25:51;20.50;89.90
44461;DHT22;30162;53.642;10.640;2023-05-23T06:28:16;20.60;89.80
44461;DHT22;30162;53.642;10.640;2023-05-23T06:30:42;20.60;89.60
44461;DHT22;30162;53.642;10.640;2023-05-23T06:33:07;20.50;89.70
44461;DHT22;30162;53.642;10.640;2023-05-23T06:35:33;20.60;89.30
44461;DHT22;30162;53.642;10.640;2023-05-23T06:37:58;20.60;89.60
44461;DHT22;30162;53.642;10.640;2023-05-23T06:40:24;20.60;89.00
44461;DHT22;30162;53.642;10.640;2023-05-23T06:42:50;20.50;89.80
44461;DHT22;30162;53.642;10.640;2023-05-23T06:45:15;20.60;89.80
44461;DHT22;30162;53.642;10.640;2023-05-23T06:47:41;20.70;89.40
44461;DHT22;30162;53.642;10.640;2023-05-23T06:50:10;20.60;89.20
44461;DHT22;30162;53.642;10.640;2023-05-23T06:52:35;20.50;89.60
44461;DHT22;30162;53.642;10.640;2023-05-23T06:55:01;20.50;89.70
44461;DHT22;30162;53.642;10.640;2023-05-23T06:57:26;20.40;89.90
44461;DHT22;30162;53.642;10.640;2023-05-23T06:59:52;20.40;90.10
44461;DHT22;30162;53.642;10.640;2023-05-23T07:02:17;20.50;90.10
44461;DHT22;30162;53.642;10.640;2023-05-23T07:04:43;20.60;90.10
44461;DHT22;30162;53.642;10.640;2023-05-23T07:07:08;20.60;90.00
44461;DHT22;30162;53.642;10.640;2023-05-23T07:09:34;20.70;90.10
44461;DHT22;30162;53.642;10.640;2023-05-23T07:11:59;20.70;90.00
44461;DHT22;30162;53.642;10.640;2023-05-23T07:14:25;20.50;90.10
44461;DHT22;30162;53.642;10.640;2023-05-23T07:16:50;20.30;90.20
44461;DHT22;30162;53.642;10.640;2023-05-23T07:19:16;20.20;90.30
44461;DHT22;30162;53.642;10.640;2023-05-23T07:21:42;20.10;90.70
44461;DHT22;30162;53.642;10.640;2023-05-23T07:24:07;20.10;90.90
44461;DHT22;30162;53.642;10.640;2023-05-23T07:26:33;20.20;90.80
44461;DHT22;30162;53.642;10.640;2023-05-23T07:28:58;20.30;90.60
44461;DHT22;30162;53.642;10.640;2023-05-23T07:31:24;20.30;90.80
44461;DHT22;30162;53.642;10.640;2023-05-23T07:33:49;20.40;90.60
44461;DHT22;30162;53.642;10.640;2023-05-23T07:36:15;20.40;90.90
44461;DHT22;30162;53.642;10.640;2023-05-23T07:38:41;20.40;90.90
44461;DHT22;30162;53.642;10.640;2023-05-23T07:41:06;20.50;90.70
44461;DHT22;30162;53.642;10.640;2023-05-23T07:43:31;20.60;90.70
44461;DHT22;30162;53.642;10.640;2023-05-23T07:45:57;20.60;91.00
44461;DHT22;30162;53.642;10.640;2023-05-23T07:48:22;20.70;90.70
44461;DHT22;30162;53.642;10.640;2023-05-23T07:50:48;20.70;90.70
44461;DHT22;30162;53.642;10.640;2023-05-23T07:53:14;20.60;90.80
44461;DHT22;30162;53.642;10.640;2023-05-23T07:55:40;20.60;90.60
44461;DHT22;30162;53.642;10.640;2023-05-23T07:58:05;20.50;90.70
44461;DHT22;30162;53.642;10.640;2023-05-23T08:00:31;20.60;90.70
44461;DHT22;30162;53.642;10.640;2023-05-23T08:02:57;20.40;90.90
44461;DHT22;30162;53.642;10.640;2023-05-23T08:05:22;20.40;91.00
44461;DHT22;30162;53.642;10.640;2023-05-23T08:07:48;20.50;90.90
44461;DHT22;30162;53.642;10.640;2023-05-23T08:10:14;20.60;90.80
44461;DHT22;30162;53.642;10.640;2023-05-23T08:12:39;20.50;90.40
44461;DHT22;30162;53.642;10.640;2023-05-23T08:15:05;20.50;90.70
44461;DHT22;30162;53.642;10.640;2023-05-23T08:17:31;20.50;90.60
44461;DHT22;30162;53.642;10.640;2023-05-23T08:19:56;20.50;90.50
44461;DHT22;30162;53.642;10.640;2023-05-23T08:22:22;20.50;90.50
44461;DHT22;30162;53.642;10.640;2023-05-23T08:24:48;20.50;90.30
44461;DHT22;30162;53.642;10.640;2023-05-23T08:27:13;20.40;90.10
44461;DHT22;30162;53.642;10.640;2023-05-23T08:29:39;20.20;90.00
44461;DHT22;30162;53.642;10.640;2023-05-23T08:32:05;20.20;90.00
44461;DHT22;30162;53.642;10.640;2023-05-23T08:34:30;20.10;90.00
44461;DHT22;30162;53.642;10.640;2023-05-23T08:36:57;20.00;90.30
44461;DHT22;30162;53.642;10.640;2023-05-23T08:39:22;20.10;90.20
44461;DHT22;30162;53.642;10.640;2023-05-23T08:41:48;20.10;90.20
44461;DHT22;30162;53.642;10.640;2023-05-23T08:44:14;20.00;90.20
44461;DHT22;30162;53.642;10.640;2023-05-23T08:46:45;20.10;90.30
44461;DHT22;30162;53.642;10.640;2023-05-23T08:49:12;20.00;90.00
44461;DHT22;30162;53.642;10.640;2023-05-23T08:51:42;19.90;90.10
44461;DHT22;30162;53.642;10.640;2023-05-23T08:54:08;19.70;90.40
44461;DHT22;30162;53.642;10.640;2023-05-23T08:56:37;19.70;90.30
44461;DHT22;30162;53.642;10.640;2023-05-23T08:59:04;19.80;90.50
44461;DHT22;30162;53.642;10.640;2023-05-23T09:01:31;20.00;90.30
44461;DHT22;30162;53.642;10.640;2023-05-23T09:03:58;20.00;90.20
44461;DHT22;30162;53.642;10.640;2023-05-23T09:06:29;19.90;90.00
44461;DHT22;30162;53.642;10.640;2023-05-23T09:08:55;19.80;90.00
44461;DHT22;30162;53.642;10.640;2023-05-23T09:11:21;19.80;90.10
44461;DHT22;30162;53.642;10.640;2023-05-23T09:13:48;19.80;89.90
44461;DHT22;30162;53.642;10.640;2023-05-23T09:16:15;19.80;89.60
44461;DHT22;30162;53.642;10.640;2023-05-23T09:18:43;19.60;89.50
44461;DHT22;30162;53.642;10.640;2023-05-23T09:21:10;19.40;89.60
44461;DHT22;30162;53.642;10.640;2023-05-23T09:23:38;19.30;89.90
44461;DHT22;30162;53.642;10.640;2023-05-23T09:26:06;19.40;89.80
44461;DHT22;30162;53.642;10.640;2023-05-23T09:28:33;19.60;89.40
44461;DHT22;30162;53.642;10.640;2023-05-23T09:31:03;19.60;89.70
44461;DHT22;30162;53.642;10.640;2023-05-23T09:33:42;19.60;89.80
44461;DHT22;30162;53.642;10.640;2023-05-23T09:36:09;19.50;89.00
44461;DHT22;30162;53.642;10.640;2023-05-23T09:38:39;19.30;89.20
44461;DHT22;30162;53.642;10.640;2023-05-23T09:41:05;19.30;88.40
44461;DHT22;30162;53.642;10.640;2023-05-23T09:43:31;18.90;89.20
44461;DHT22;30162;53.642;10.640;2023-05-23T09:46:15;18.90;89.30
44461;DHT22;30162;53.642;10.640;2023-05-23T09:48:49;19.10;89.30
44461;DHT22;30162;53.642;10.640;2023-05-23T09:51:19;19.10;89.40
44461;DHT22;30162;53.642;10.640;2023-05-23T09:53:48;18.90;89.70
44461;DHT22;30162;53.642;10.640;2023-05-23T09:56:15;19.10;89.90
44461;DHT22;30162;53.642;10.640;2023-05-23T09:58:45;19.10;90.00
44461;DHT22;30162;53.642;10.640;2023-05-23T10:01:12;19.30;89.60
44461;DHT22;30162;53.642;10.640;2023-05-23T10:03:48;19.40;89.20
44461;DHT22;30162;53.642;10.640;2023-05-23T10:06:51;19.50;88.50
44461;DHT22;30162;53.642;10.640;2023-05-23T10:09:20;19.20;88.50
44461;DHT22;30162;53.642;10.640;2023-05-23T10:14:44;19.10;88.40
44461;DHT22;30162;53.642;10.640;2023-05-23T10:17:28;19.10;88.60
44461;DHT22;30162;53.642;10.640;2023-05-23T10:20:02;18.90;89.50
44461;DHT22;30162;53.642;10.640;2023-05-23T10:22:35;19.20;89.50
44461;DHT22;30162;53.642;10.640;2023-05-23T10:25:02;19.40;87.90
44461;DHT22;30162;53.642;10.640;2023-05-23T10:27:30;19.50;88.40
44461;DHT22;30162;53.642;10.640;2023-05-23T10:29:57;19.60;88.40
44461;DHT22;30162;53.642;10.640;2023-05-23T10:32:24;19.50;88.30
44461;DHT22;30162;53.642;10.640;2023-05-23T10:34:55;19.40;88.70
44461;DHT22;30162;53.642;10.640;2023-05-23T10:37:49;19.10;88.60
44461;DHT22;30162;53.642;10.640;2023-05-23T10:40:21;18.70;89.20
44461;DHT22;30162;53.642;10.640;2023-05-23T10:43:03;18.50;90.30
44461;DHT22;30162;53.642;10.640;2023-05-23T10:45:39;18.60;90.50
44461;DHT22;30162;53.642;10.640;2023-05-23T10:48:19;18.50;90.60
44461;DHT22;30162;53.642;10.640;2023-05-23T10:51:04;18.70;90.30
44461;DHT22;30162;53.642;10.640;2023-05-23T10:56:05;18.70;90.10
44461;DHT22;30162;53.642;10.640;2023-05-23T10:58:32;18.70;90.20
44461;DHT22;30162;53.642;10.640;2023-05-23T11:01:05;18.60;90.20
44461;DHT22;30162;53.642;10.640;2023-05-23T11:06:28;18.40;90.10
44461;DHT22;30162;53.642;10.640;2023-05-23T11:09:02;18.10;90.40
44461;DHT22;30162;53.642;10.640;2023-05-23T11:14:13;18.20;90.50
44461;DHT22;30162;53.642;10.640;2023-05-23T11:16:44;18.30;90.20
44461;DHT22;30162;53.642;10.640;2023-05-23T11:21:43;18.30;90.30
44461;DHT22;30162;53.642;10.640;2023-05-23T11:24:09;18.30;90.50
44461;DHT22;30162;53.642;10.640;2023-05-23T11:26:35;18.30;90.50
44461;DHT22;30162;53.642;10.640;2023-05-23T11:29:01;18.30;90.30
44461;DHT22;30162;53.642;10.640;2023-05-23T11:31:28;18.40;90.20
44461;DHT22;30162;53.642;10.640;2023-05-23T11:33:54;18.40;90.50
44461;DHT22;30162;53.642;10.640;2023-05-23T11:36:23;18.60;90.40
44461;DHT22;30162;53.642;10.640;2023-05-23T11:38:51;18.70;90.20
44461;DHT22;30162;53.642;10.640;2023-05-23T11:41:17;18.60;90.10
44461;DHT22;30162;53.642;10.640;2023-05-23T11:43:52;17.90;90.50
44461;DHT22;30162;53.642;10.640;2023-05-23T11:46:18;17.90;90.60
44461;DHT22;30162;53.642;10.640;2023-05-23T11:48:47;18.10;90.60
44461;DHT22;30162;53.642;10.640;2023-05-23T11:51:14;17.90;90.60
44461;DHT22;30162;53.642;10.640;2023-05-23T11:53:41;18.00;90.40
44461;DHT22;30162;53.642;10.640;2023-05-23T11:56:07;18.10;90.20
44461;DHT22;30162;53.642;10.640;2023-05-23T11:58:38;18.10;90.00
44461;DHT22;30162;53.642;10.640;2023-05-23T12:01:07;18.20;90.10
44461;DHT22;30162;53.642;10.640;2023-05-23T12:03:34;18.30;90.00
44461;DHT22;30162;53.642;10.640;2023-05-23T12:06:00;18.20;88.90
44461;DHT22;30162;53.642;10.640;2023-05-23T12:08:28;18.20;89.30
44461;DHT22;30162;53.642;10.640;2023-05-23T12:10:58;18.20;89.70
44461;DHT22;30162;53.642;10.640;2023-05-23T12:13:28;18.50;89.40
44461;DHT22;30162;53.642;10.640;2023-05-23T12:15:55;18.80;89.60
44461;DHT22;30162;53.642;10.640;2023-05-23T12:18:21;18.90;88.50
44461;DHT22;30162;53.642;10.640;2023-05-23T12:20:50;19.10;88.40
44461;DHT22;30162;53.642;10.640;2023-05-23T12:23:22;19.40;88.40
44461;DHT22;30162;53.642;10.640;2023-05-23T12:25:52;19.50;86.20
44461;DHT22;30162;53.642;10.640;2023-05-23T12:28:19;19.40;86.20
44461;DHT22;30162;53.642;10.640;2023-05-23T12:30:45;19.30;86.90
44461;DHT22;30162;53.642;10.640;2023-05-23T12:33:11;19.20;86.70
44461;DHT22;30162;53.642;10.640;2023-05-23T12:35:41;19.30;87.00
44461;DHT22;30162;53.642;10.640;2023-05-23T12:38:07;19.20;86.20
44461;DHT22;30162;53.642;10.640;2023-05-23T12:40:33;19.20;86.10
44461;DHT22;30162;53.642;10.640;2023-05-23T12:42:58;18.60;85.80
44461;DHT22;30162;53.642;10.640;2023-05-23T12:45:30;18.70;87.30
44461;DHT22;30162;53.642;10.640;2023-05-23T12:47:56;18.80;86.40
44461;DHT22;30162;53.642;10.640;2023-05-23T12:50:22;18.70;86.50
44461;DHT22;30162;53.642;10.640;2023-05-23T12:52:47;18.80;87.20
44461;DHT22;30162;53.642;10.640;2023-05-23T12:55:13;19.10;87.70
44461;DHT22;30162;53.642;10.640;2023-05-23T12:57:39;19.20;85.20
44461;DHT22;30162;53.642;10.640;2023-05-23T13:00:05;19.20;84.60
44461;DHT22;30162;53.642;10.640;2023-05-23T13:02:31;19.10;83.50
44461;DHT22;30162;53.642;10.640;2023-05-23T13:04:56;19.20;84.60
44461;DHT22;30162;53.642;10.640;2023-05-23T13:07:22;19.50;84.70
44461;DHT22;30162;53.642;10.640;2023-05-23T13:09:48;20.10;83.30
44461;DHT22;30162;53.642;10.640;2023-05-23T13:12:14;20.00;81.10
44461;DHT22;30162;53.642;10.640;2023-05-23T13:14:40;19.80;80.60
44461;DHT22;30162;53.642;10.640;2023-05-23T13:17:06;20.00;81.50
44461;DHT22;30162;53.642;10.640;2023-05-23T13:19:32;20.20;80.90
44461;DHT22;30162;53.642;10.640;2023-05-23T13:21:57;20.00;79.00
44461;DHT22;30162;53.642;10.640;2023-05-23T13:24:24;20.10;78.70
44461;DHT22;30162;53.642;10.640;2023-05-23T13:26:50;20.20;77.70
44461;DHT22;30162;53.642;10.640;2023-05-23T13:29:16;20.30;78.80
44461;DHT22;30162;53.642;10.640;2023-05-23T13:31:41;20.50;78.40
44461;DHT22;30162;53.642;10.640;2023-05-23T13:34:08;20.20;78.20
44461;DHT22;30162;53.642;10.640;2023-05-23T13:36:34;20.10;77.00
44461;DHT22;30162;53.642;10.640;2023-05-23T13:39:00;20.00;77.10
44461;DHT22;30162;53.642;10.640;2023-05-23T13:41:26;20.20;76.70
44461;DHT22;30162;53.642;10.640;2023-05-23T13:43:51;20.40;75.20
44461;DHT22;30162;53.642;10.640;2023-05-23T13:46:17;20.30;76.00
44461;DHT22;30162;53.642;10.640;2023-05-23T13:48:42;20.20;75.40
44461;DHT22;30162;53.642;10.640;2023-05-23T13:51:08;19.90;75.10
44461;DHT22;30162;53.642;10.640;2023-05-23T13:53:34;19.90;76.10
44461;DHT22;30162;53.642;10.640;2023-05-23T13:55:59;19.80;75.70
44461;DHT22;30162;53.642;10.640;2023-05-23T13:58:26;19.80;76.00
44461;DHT22;30162;53.642;10.640;2023-05-23T14:00:51;19.90;74.50
44461;DHT22;30162;53.642;10.640;2023-05-23T14:03:17;20.10;73.60
44461;DHT22;30162;53.642;10.640;2023-05-23T14:05:44;19.90;74.10
44461;DHT22;30162;53.642;10.640;2023-05-23T14:08:09;19.50;72.70
44461;DHT22;30162;53.642;10.640;2023-05-23T14:10:37;19.40;72.90
44461;DHT22;30162;53.642;10.640;2023-05-23T14:13:03;19.20;74.50
44461;DHT22;30162;53.642;10.640;2023-05-23T14:15:28;19.50;74.90
44461;DHT22;30162;53.642;10.640;2023-05-23T14:17:54;19.40;73.00
44461;DHT22;30162;53.642;10.640;2023-05-23T14:20:21;19.20;73.80
44461;DHT22;30162;53.642;10.640;2023-05-23T14:22:48;19.20;74.10
44461;DHT22;30162;53.642;10.640;2023-05-23T14:25:14;19.30;74.80
44461;DHT22;30162;53.642;10.640;2023-05-23T14:27:40;19.10;73.40
44461;DHT22;30162;53.642;10.640;2023-05-23T14:30:06;19.10;75.10
44461;DHT22;30162;53.642;10.640;2023-05-23T14:32:32;19.30;73.60
44461;DHT22;30162;53.642;10.640;2023-05-23T14:35:03;19.40;73.30
44461;DHT22;30162;53.642;10.640;2023-05-23T14:37:29;19.70;74.00
44461;DHT22;30162;53.642;10.640;2023-05-23T14:39:56;19.60;72.40
44461;DHT22;30162;53.642;10.640;2023-05-23T14:42:21;19.50;71.60
44461;DHT22;30162;53.642;10.640;2023-05-23T14:44:47;19.60;73.20
44461;DHT22;30162;53.642;10.640;2023-05-23T14:47:12;19.50;70.60
44461;DHT22;30162;53.642;10.640;2023-05-23T14:49:38;19.60;71.20
44461;DHT22;30162;53.642;10.640;2023-05-23T14:52:03;19.70;72.10
44461;DHT22;30162;53.642;10.640;2023-05-23T14:54:29;19.50;71.60
44461;DHT22;30162;53.642;10.640;2023-05-23T14:56:54;19.30;72.70
44461;DHT22;30162;53.642;10.640;2023-05-23T14:59:21;19.30;72.90
44461;DHT22;30162;53.642;10.640;2023-05-23T15:01:46;19.20;72.10
44461;DHT22;30162;53.642;10.640;2023-05-23T15:04:12;19.30;70.70
44461;DHT22;30162;53.642;10.640;2023-05-23T15:06:38;19.30;71.80
44461;DHT22;30162;53.642;10.640;2023-05-23T15:09:05;19.30;71.40
44461;DHT22;30162;53.642;10.640;2023-05-23T15:11:31;19.00;70.70
44461;DHT22;30162;53.642;10.640;2023-05-23T15:13:59;18.90;71.00
44461;DHT22;30162;53.642;10.640;2023-05-23T15:16:25;19.00;71.00
44461;DHT22;30162;53.642;10.640;2023-05-23T15:18:50;19.20;72.20
44461;DHT22;30162;53.642;10.640;2023-05-23T15:21:16;19.00;71.60
44461;DHT22;30162;53.642;10.640;2023-05-23T15:23:41;19.20;71.10
44461;DHT22;30162;53.642;10.640;2023-05-23T15:26:07;19.10;72.40
44461;DHT22;30162;53.642;10.640;2023-05-23T15:28:32;19.00;72.20
44461;DHT22;30162;53.642;10.640;2023-05-23T15:30:58;19.10;71.90
44461;DHT22;30162;53.642;10.640;2023-05-23T15:33:23;19.30;71.70